Wetterdaten: Samstag, 16.10.2010
Datum Zeit Temp. A. Feuchte A. Luftdruck Regen Wind Richtung Richtung Sonnenschein UV Solar Windben
16.10.2010 00:00 8,8 C 93 % 1008,4 hPa 0,0 mm 1,6 km/h (1 Bft) W 270 0 min 0 UV-I 0 W/m 8,0 km/h (2 Bft)
16.10.2010 00:10 8,8 C 93 % 1008,4 hPa 0,3 mm 0,0 km/h (0 Bft) W 270 0 min 0 UV-I 0 W/m 3,2 km/h (1 Bft)
16.10.2010 00:20 8,7 C 93 % 1008,3 hPa 0,0 mm 0,0 km/h (0 Bft) W 270 0 min 0 UV-I 0 W/m 4,8 km/h (1 Bft)
16.10.2010 00:30 8,7 C 93 % 1008,1 hPa 0,3 mm 0,0 km/h (0 Bft) W 270 0 min 0 UV-I 0 W/m 3,2 km/h (1 Bft)
16.10.2010 00:40 8,7 C 93 % 1008,0 hPa 0,3 mm 0,0 km/h (0 Bft) W 270 0 min 0 UV-I 0 W/m 3,2 km/h (1 Bft)
16.10.2010 00:50 8,7 C 93 % 1008,0 hPa 0,0 mm 0,0 km/h (0 Bft) W 270 0 min 0 UV-I 0 W/m 6,4 km/h (2 Bft)
16.10.2010 01:00 8,7 C 93 % 1007,9 hPa 0,3 mm 0,0 km/h (0 Bft) W 270 0 min 0 UV-I 0 W/m 4,8 km/h (1 Bft)
16.10.2010 01:10 8,6 C 93 % 1007,8 hPa 0,0 mm 0,0 km/h (0 Bft) W 270 0 min 0 UV-I 0 W/m 4,8 km/h (1 Bft)
16.10.2010 01:20 8,6 C 93 % 1007,8 hPa 0,3 mm 0,0 km/h (0 Bft) W 270 0 min 0 UV-I 0 W/m 3,2 km/h (1 Bft)
16.10.2010 01:30 8,5 C 93 % 1007,6 hPa 0,0 mm 0,0 km/h (0 Bft) W 270 0 min 0 UV-I 0 W/m 6,4 km/h (2 Bft)
16.10.2010 01:40 8,4 C 94 % 1007,6 hPa 0,3 mm 0,0 km/h (0 Bft) W 270 0 min 0 UV-I 0 W/m 4,8 km/h (1 Bft)
16.10.2010 01:50 8,4 C 93 % 1007,5 hPa 0,0 mm 0,0 km/h (0 Bft) W 270 0 min 0 UV-I 0 W/m 4,8 km/h (1 Bft)
16.10.2010 02:00 8,3 C 93 % 1007,5 hPa 0,3 mm 0,0 km/h (0 Bft) W 270 0 min 0 UV-I 0 W/m 3,2 km/h (1 Bft)
16.10.2010 02:10 8,3 C 93 % 1007,5 hPa 0,0 mm 0,0 km/h (0 Bft) W 270 0 min 0 UV-I 0 W/m 4,8 km/h (1 Bft)
16.10.2010 02:20 8,2 C 93 % 1007,5 hPa 0,0 mm 0,0 km/h (0 Bft) W 270 0 min 0 UV-I 0 W/m 3,2 km/h (1 Bft)
16.10.2010 02:30 8,2 C 93 % 1007,4 hPa 0,3 mm 0,0 km/h (0 Bft) W 270 0 min 0 UV-I 0 W/m 1,6 km/h (1 Bft)
16.10.2010 02:40 8,2 C 94 % 1007,4 hPa 0,0 mm 0,0 km/h (0 Bft) W 270 0 min 0 UV-I 0 W/m 1,6 km/h (1 Bft)
16.10.2010 02:50 8,2 C 94 % 1007,3 hPa 0,3 mm 0,0 km/h (0 Bft) W 270 0 min 0 UV-I 0 W/m 1,6 km/h (1 Bft)
16.10.2010 03:00 8,2 C 94 % 1007,3 hPa 0,0 mm 0,0 km/h (0 Bft) W 270 0 min 0 UV-I 0 W/m 1,6 km/h (1 Bft)
16.10.2010 03:10 8,2 C 94 % 1007,2 hPa 0,3 mm 0,0 km/h (0 Bft) W 270 0 min 0 UV-I 0 W/m 3,2 km/h (1 Bft)
16.10.2010 03:20 8,2 C 94 % 1007,1 hPa 0,3 mm 0,0 km/h (0 Bft) W 270 0 min 0 UV-I 0 W/m 1,6 km/h (1 Bft)
16.10.2010 03:30 8,2 C 94 % 1007,0 hPa 0,3 mm 0,0 km/h (0 Bft) W 270 0 min 0 UV-I 0 W/m 1,6 km/h (1 Bft)
16.10.2010 03:40 8,2 C 94 % 1006,9 hPa 0,0 mm 0,0 km/h (0 Bft) N 0 0 min 0 UV-I 0 W/m 0,0 km/h (0 Bft)
16.10.2010 03:50 8,3 C 94 % 1006,8 hPa 0,3 mm 0,0 km/h (0 Bft) W 270 0 min 0 UV-I 0 W/m 3,2 km/h (1 Bft)
16.10.2010 04:00 8,3 C 94 % 1006,7 hPa 0,0 mm 0,0 km/h (0 Bft) W 270 0 min 0 UV-I 0 W/m 1,6 km/h (1 Bft)
16.10.2010 04:10 8,3 C 94 % 1006,7 hPa 0,0 mm 0,0 km/h (0 Bft) W 270 0 min 0 UV-I 0 W/m 1,6 km/h (1 Bft)
16.10.2010 04:20 8,4 C 94 % 1006,7 hPa 0,0 mm 0,0 km/h (0 Bft) W 270 0 min 0 UV-I 0 W/m 1,6 km/h (1 Bft)
16.10.2010 04:30 8,4 C 94 % 1006,6 hPa 0,0 mm 0,0 km/h (0 Bft) W 270 0 min 0 UV-I 0 W/m 1,6 km/h (1 Bft)
16.10.2010 04:40 8,5 C 94 % 1006,5 hPa 0,0 mm 0,0 km/h (0 Bft) W 270 0 min 0 UV-I 0 W/m 4,8 km/h (1 Bft)
16.10.2010 04:50 8,5 C 94 % 1006,4 hPa 0,3 mm 1,6 km/h (1 Bft) W 270 0 min 0 UV-I 0 W/m 6,4 km/h (2 Bft)
16.10.2010 05:00 8,5 C 94 % 1006,4 hPa 0,3 mm 1,6 km/h (1 Bft) W 270 0 min 0 UV-I 0 W/m 6,4 km/h (2 Bft)
16.10.2010 05:10 8,6 C 94 % 1006,4 hPa 0,0 mm 0,0 km/h (0 Bft) W 270 0 min 0 UV-I 0 W/m 4,8 km/h (1 Bft)
16.10.2010 05:20 8,6 C 94 % 1006,5 hPa 0,0 mm 0,0 km/h (0 Bft) W 270 0 min 0 UV-I 0 W/m 6,4 km/h (2 Bft)
16.10.2010 05:30 8,6 C 94 % 1006,6 hPa 0,0 mm 1,6 km/h (1 Bft) W 270 0 min 0 UV-I 0 W/m 8,0 km/h (2 Bft)
16.10.2010 05:40 8,4 C 94 % 1006,7 hPa 0,0 mm 1,6 km/h (1 Bft) W 270 0 min 0 UV-I 0 W/m 6,4 km/h (2 Bft)
16.10.2010 05:50 8,3 C 94 % 1006,7 hPa 0,0 mm 1,6 km/h (1 Bft) W 270 0 min 0 UV-I 0 W/m 4,8 km/h (1 Bft)
16.10.2010 06:00 8,3 C 94 % 1006,7 hPa 0,3 mm 3,2 km/h (1 Bft) W 270 0 min 0 UV-I 0 W/m 9,7 km/h (2 Bft)
16.10.2010 06:10 8,3 C 94 % 1006,7 hPa 0,0 mm 3,2 km/h (1 Bft) W 270 0 min 0 UV-I 0 W/m 11,3 km/h (2 Bft)
16.10.2010 06:20 8,3 C 94 % 1006,7 hPa 0,0 mm 3,2 km/h (1 Bft) W 270 0 min 0 UV-I 0 W/m 11,3 km/h (2 Bft)
16.10.2010 06:30 8,3 C 94 % 1006,8 hPa 0,0 mm 3,2 km/h (1 Bft) W-NW 292 0 min 0 UV-I 0 W/m 16,1 km/h (3 Bft)
16.10.2010 06:40 8,3 C 94 % 1007,0 hPa 0,0 mm 1,6 km/h (1 Bft) NW 315 0 min 0 UV-I 0 W/m 16,1 km/h (3 Bft)
16.10.2010 06:50 8,3 C 94 % 1007,0 hPa 0,0 mm 0,0 km/h (0 Bft) NW 315 0 min 0 UV-I 0 W/m 6,4 km/h (2 Bft)
16.10.2010 07:00 8,3 C 94 % 1007,0 hPa 0,0 mm 1,6 km/h (1 Bft) NW 315 0 min 0 UV-I 0 W/m 9,7 km/h (2 Bft)
16.10.2010 07:10 8,3 C 94 % 1007,1 hPa 0,0 mm 0,0 km/h (0 Bft) NW 315 0 min 0 UV-I 0 W/m 4,8 km/h (1 Bft)
16.10.2010 07:20 8,3 C 94 % 1007,2 hPa 0,0 mm 0,0 km/h (0 Bft) NW 315 0 min 0 UV-I 0 W/m 6,4 km/h (2 Bft)
16.10.2010 07:30 8,3 C 94 % 1007,3 hPa 0,0 mm 0,0 km/h (0 Bft) NW 315 0 min 0 UV-I 0 W/m 3,2 km/h (1 Bft)
16.10.2010 07:40 8,3 C 94 % 1007,3 hPa 0,0 mm 0,0 km/h (0 Bft) NW 315 0 min 0 UV-I 0 W/m 4,8 km/h (1 Bft)
16.10.2010 07:50 8,3 C 94 % 1007,3 hPa 0,0 mm 0,0 km/h (0 Bft) NW 315 0 min 0 UV-I 0 W/m 4,8 km/h (1 Bft)
16.10.2010 08:00 8,3 C 94 % 1007,3 hPa 0,0 mm 0,1 km/h (0 Bft) NW 304 0 min 0 UV-I 0 W/m 1,6 km/h (1 Bft)
16.10.2010 08:10 8,3 C 94 % 1007,6 hPa 0,0 mm 0,0 km/h (0 Bft) NW 315 0 min 0 UV-I 0 W/m 3,2 km/h (1 Bft)
16.10.2010 08:20 8,3 C 94 % 1007,7 hPa 0,0 mm 0,0 km/h (0 Bft) NW 315 0 min 0 UV-I 7 W/m 4,8 km/h (1 Bft)
16.10.2010 08:30 8,2 C 94 % 1007,8 hPa 0,0 mm 0,0 km/h (0 Bft) NW 315 0 min 0 UV-I 14 W/m 3,2 km/h (1 Bft)
16.10.2010 08:40 8,2 C 94 % 1007,7 hPa 0,0 mm 0,0 km/h (0 Bft) NW 315 0 min 0 UV-I 21 W/m 3,2 km/h (1 Bft)
16.10.2010 08:50 8,3 C 94 % 1007,6 hPa 0,0 mm 0,5 km/h (0 Bft) NW 305 0 min 0 UV-I 24 W/m 6,4 km/h (2 Bft)
16.10.2010 09:00 8,3 C 94 % 1007,8 hPa 0,0 mm 0,6 km/h (0 Bft) NW 304 0 min 0 UV-I 21 W/m 4,8 km/h (1 Bft)
16.10.2010 09:10 8,4 C 94 % 1007,9 hPa 0,0 mm 0,7 km/h (0 Bft) NW 304 0 min 0 UV-I 19 W/m 6,4 km/h (2 Bft)
16.10.2010 09:20 8,4 C 94 % 1008,0 hPa 0,0 mm 0,3 km/h (0 Bft) NW 304 0 min 0 UV-I 20 W/m 4,8 km/h (1 Bft)
16.10.2010 09:30 8,4 C 94 % 1008,1 hPa 0,0 mm 0,2 km/h (0 Bft) NW 305 0 min 0 UV-I 28 W/m 3,2 km/h (1 Bft)
16.10.2010 09:40 8,5 C 94 % 1008,2 hPa 0,0 mm 0,2 km/h (0 Bft) NW 304 0 min 0 UV-I 22 W/m 3,2 km/h (1 Bft)
16.10.2010 09:50 8,5 C 94 % 1008,3 hPa 0,0 mm 0,2 km/h (0 Bft) NW 305 0 min 0 UV-I 23 W/m 3,2 km/h (1 Bft)
16.10.2010 10:00 8,6 C 94 % 1008,3 hPa 0,0 mm 0,7 km/h (0 Bft) NW 304 0 min 0 UV-I 38 W/m 4,8 km/h (1 Bft)
16.10.2010 10:10 8,6 C 94 % 1008,4 hPa 0,0 mm 0,5 km/h (0 Bft) NW 304 0 min 0 UV-I 51 W/m 4,8 km/h (1 Bft)
16.10.2010 10:20 8,7 C 94 % 1008,5 hPa 0,0 mm 0,1 km/h (0 Bft) NW 305 0 min 0 UV-I 58 W/m 3,2 km/h (1 Bft)
16.10.2010 10:30 8,8 C 94 % 1008,7 hPa 0,0 mm 0,1 km/h (0 Bft) NW 305 0 min 0 UV-I 56 W/m 3,2 km/h (1 Bft)
16.10.2010 10:40 8,8 C 94 % 1008,7 hPa 0,0 mm 0,6 km/h (0 Bft) NW 305 0 min 0 UV-I 52 W/m 4,8 km/h (1 Bft)
16.10.2010 10:50 8,8 C 94 % 1008,8 hPa 0,3 mm 0,5 km/h (0 Bft) NW 304 0 min 0 UV-I 40 W/m 4,8 km/h (1 Bft)
16.10.2010 11:00 8,8 C 94 % 1008,9 hPa 0,3 mm 0,5 km/h (0 Bft) NW 305 0 min 0 UV-I 41 W/m 3,2 km/h (1 Bft)
16.10.2010 11:10 8,8 C 94 % 1009,0 hPa 0,3 mm 1,0 km/h (0 Bft) NW 305 0 min 0 UV-I 31 W/m 6,4 km/h (2 Bft)
16.10.2010 11:20 8,8 C 94 % 1009,0 hPa 0,3 mm 0,5 km/h (0 Bft) NW 305 0 min 0 UV-I 38 W/m 6,4 km/h (2 Bft)
16.10.2010 11:30 8,8 C 94 % 1009,1 hPa 0,3 mm 0,7 km/h (0 Bft) NW 305 0 min 0 UV-I 56 W/m 4,8 km/h (1 Bft)
16.10.2010 11:40 8,9 C 94 % 1009,1 hPa 0,3 mm 2,3 km/h (1 Bft) NW 305 0 min 1 UV-I 60 W/m 6,4 km/h (2 Bft)
16.10.2010 11:50 8,9 C 94 % 1009,2 hPa 0,0 mm 3,2 km/h (1 Bft) N-NW 336 0 min 0 UV-I 52 W/m 11,3 km/h (2 Bft)
16.10.2010 12:00 8,4 C 94 % 1009,7 hPa 0,3 mm 7,5 km/h (2 Bft) O-NO 67 0 min 0 UV-I 57 W/m 17,7 km/h (3 Bft)
16.10.2010 12:10 8,0 C 94 % 1009,8 hPa 0,3 mm 6,5 km/h (2 Bft) NO 55 0 min 1 UV-I 72 W/m 17,7 km/h (3 Bft)
16.10.2010 12:20 7,9 C 94 % 1009,9 hPa 0,3 mm 6,1 km/h (2 Bft) NO 37 0 min 1 UV-I 82 W/m 19,3 km/h (3 Bft)
16.10.2010 12:30 7,9 C 94 % 1010,1 hPa 0,0 mm 4,2 km/h (1 Bft) N-NO 29 0 min 1 UV-I 75 W/m 16,1 km/h (3 Bft)
16.10.2010 12:40 7,8 C 94 % 1010,2 hPa 0,0 mm 4,9 km/h (1 Bft) O-NO 69 0 min 0 UV-I 51 W/m 16,1 km/h (3 Bft)
16.10.2010 12:50 7,5 C 93 % 1010,4 hPa 0,0 mm 5,1 km/h (1 Bft) N-NO 16 0 min 0 UV-I 42 W/m 25,7 km/h (4 Bft)
16.10.2010 13:00 7,2 C 93 % 1010,6 hPa 0,0 mm 5,8 km/h (2 Bft) N-NW 340 0 min 0 UV-I 30 W/m 25,7 km/h (4 Bft)
16.10.2010 13:10 6,9 C 93 % 1010,6 hPa 0,0 mm 5,6 km/h (1 Bft) N-NO 15 0 min 0 UV-I 40 W/m 19,3 km/h (3 Bft)
16.10.2010 13:20 6,9 C 93 % 1010,9 hPa 0,0 mm 5,5 km/h (1 Bft) NO 38 0 min 0 UV-I 45 W/m 19,3 km/h (3 Bft)
16.10.2010 13:30 6,7 C 93 % 1011,0 hPa 0,0 mm 7,4 km/h (2 Bft) N-NO 20 0 min 0 UV-I 62 W/m 17,7 km/h (3 Bft)
16.10.2010 13:40 6,6 C 93 % 1011,2 hPa 0,0 mm 5,9 km/h (2 Bft) NO 52 0 min 0 UV-I 65 W/m 17,7 km/h (3 Bft)
16.10.2010 13:50 6,3 C 93 % 1011,3 hPa 0,0 mm 7,8 km/h (2 Bft) O 90 0 min 0 UV-I 62 W/m 20,9 km/h (4 Bft)
16.10.2010 14:00 6,3 C 93 % 1011,4 hPa 0,0 mm 4,6 km/h (1 Bft) N-NO 27 0 min 0 UV-I 42 W/m 12,9 km/h (3 Bft)
16.10.2010 14:10 6,2 C 93 % 1011,5 hPa 0,0 mm 5,1 km/h (1 Bft) N-NO 29 0 min 0 UV-I 40 W/m 19,3 km/h (3 Bft)
16.10.2010 14:20 6,1 C 93 % 1011,7 hPa 0,0 mm 6,3 km/h (2 Bft) NO 51 0 min 0 UV-I 43 W/m 20,9 km/h (4 Bft)
16.10.2010 14:30 6,0 C 92 % 1011,8 hPa 0,0 mm 6,4 km/h (2 Bft) N-NO 13 0 min 0 UV-I 55 W/m 24,1 km/h (4 Bft)
16.10.2010 14:40 6,1 C 92 % 1011,9 hPa 0,0 mm 2,9 km/h (1 Bft) N 355 0 min 0 UV-I 43 W/m 11,3 km/h (2 Bft)
16.10.2010 14:50 5,9 C 92 % 1011,9 hPa 0,0 mm 6,9 km/h (2 Bft) O-NO 66 0 min 0 UV-I 40 W/m 24,1 km/h (4 Bft)
16.10.2010 15:00 6,1 C 92 % 1012,1 hPa 0,0 mm 4,3 km/h (1 Bft) N-NO 32 0 min 0 UV-I 45 W/m 19,3 km/h (3 Bft)
16.10.2010 15:10 6,1 C 92 % 1012,4 hPa 0,0 mm 5,0 km/h (1 Bft) N-NO 20 0 min 0 UV-I 31 W/m 16,1 km/h (3 Bft)
16.10.2010 15:20 6,1 C 92 % 1012,5 hPa 0,0 mm 2,6 km/h (1 Bft) N-NO 26 0 min 0 UV-I 27 W/m 8,0 km/h (2 Bft)
16.10.2010 15:30 6,1 C 92 % 1012,5 hPa 0,0 mm 3,2 km/h (1 Bft) N-NO 15 0 min 0 UV-I 24 W/m 11,3 km/h (2 Bft)
16.10.2010 15:40 6,1 C 91 % 1012,6 hPa 0,0 mm 4,4 km/h (1 Bft) N-NO 21 0 min 0 UV-I 31 W/m 14,5 km/h (3 Bft)
16.10.2010 15:50 6,1 C 91 % 1012,8 hPa 0,0 mm 3,2 km/h (1 Bft) N-NO 22 0 min 0 UV-I 40 W/m 14,5 km/h (3 Bft)
16.10.2010 16:00 6,1 C 91 % 1012,7 hPa 0,0 mm 5,3 km/h (1 Bft) N 355 0 min 0 UV-I 47 W/m 16,1 km/h (3 Bft)
16.10.2010 16:10 6,0 C 91 % 1012,8 hPa 0,0 mm 4,8 km/h (1 Bft) NO 45 0 min 0 UV-I 54 W/m 17,7 km/h (3 Bft)
16.10.2010 16:20 5,9 C 91 % 1013,0 hPa 0,0 mm 4,8 km/h (1 Bft) N-NO 22 0 min 0 UV-I 46 W/m 20,9 km/h (4 Bft)
16.10.2010 16:30 6,0 C 91 % 1013,1 hPa 0,0 mm 3,2 km/h (1 Bft) NO 45 0 min 0 UV-I 39 W/m 14,5 km/h (3 Bft)
16.10.2010 16:40 6,0 C 91 % 1013,2 hPa 0,0 mm 4,8 km/h (1 Bft) N-NO 22 0 min 0 UV-I 42 W/m 14,5 km/h (3 Bft)
16.10.2010 16:50 6,0 C 91 % 1013,4 hPa 0,0 mm 4,8 km/h (1 Bft) N-NO 22 0 min 0 UV-I 46 W/m 16,1 km/h (3 Bft)
16.10.2010 17:00 6,1 C 91 % 1013,3 hPa 0,0 mm 6,4 km/h (2 Bft) N-NO 22 0 min 0 UV-I 42 W/m 16,1 km/h (3 Bft)
16.10.2010 17:10 6,1 C 91 % 1013,6 hPa 0,0 mm 3,2 km/h (1 Bft) N-NO 22 0 min 0 UV-I 40 W/m 16,1 km/h (3 Bft)
16.10.2010 17:20 6,0 C 90 % 1013,7 hPa 0,0 mm 7,9 km/h (2 Bft) O-NO 65 0 min 0 UV-I 35 W/m 14,5 km/h (3 Bft)
16.10.2010 17:30 6,1 C 90 % 1013,9 hPa 0,0 mm 4,4 km/h (1 Bft) N 355 0 min 0 UV-I 33 W/m 17,7 km/h (3 Bft)
16.10.2010 17:40 6,1 C 90 % 1013,9 hPa 0,0 mm 4,4 km/h (1 Bft) N-NO 15 0 min 0 UV-I 20 W/m 16,1 km/h (3 Bft)
16.10.2010 17:50 6,1 C 90 % 1014,0 hPa 0,0 mm 4,8 km/h (1 Bft) N 5 0 min 0 UV-I 12 W/m 16,1 km/h (3 Bft)
16.10.2010 18:00 6,1 C 90 % 1014,2 hPa 0,0 mm 3,5 km/h (1 Bft) N 11 0 min 0 UV-I 3 W/m 16,1 km/h (3 Bft)
16.10.2010 18:10 6,1 C 90 % 1014,3 hPa 0,0 mm 3,2 km/h (1 Bft) N-NO 22 0 min 0 UV-I 0 W/m 11,3 km/h (2 Bft)
16.10.2010 18:20 6,1 C 90 % 1014,4 hPa 0,0 mm 3,2 km/h (1 Bft) N-NO 22 0 min 0 UV-I 0 W/m 16,1 km/h (3 Bft)
16.10.2010 18:30 6,1 C 90 % 1014,5 hPa 0,0 mm 4,8 km/h (1 Bft) N 360 0 min 0 UV-I 0 W/m 19,3 km/h (3 Bft)
16.10.2010 18:40 6,1 C 90 % 1014,6 hPa 0,0 mm 6,4 km/h (2 Bft) NO 45 0 min 0 UV-I 0 W/m 19,3 km/h (3 Bft)
16.10.2010 18:50 6,0 C 90 % 1014,7 hPa 0,0 mm 4,8 km/h (1 Bft) N-NO 22 0 min 0 UV-I 0 W/m 16,1 km/h (3 Bft)
16.10.2010 19:00 6,1 C 90 % 1014,8 hPa 0,0 mm 4,8 km/h (1 Bft) NO 45 0 min 0 UV-I 0 W/m 16,1 km/h (3 Bft)
16.10.2010 19:10 6,1 C 90 % 1014,9 hPa 0,0 mm 4,8 km/h (1 Bft) N-NO 22 0 min 0 UV-I 0 W/m 11,3 km/h (2 Bft)
16.10.2010 19:20 6,1 C 90 % 1015,1 hPa 0,0 mm 6,4 km/h (2 Bft) N-NO 22 0 min 0 UV-I 0 W/m 17,7 km/h (3 Bft)
16.10.2010 19:30 6,1 C 89 % 1015,3 hPa 0,0 mm 3,2 km/h (1 Bft) N-NO 22 0 min 0 UV-I 0 W/m 16,1 km/h (3 Bft)
16.10.2010 19:40 6,1 C 89 % 1015,5 hPa 0,0 mm 4,8 km/h (1 Bft) N-NO 22 0 min 0 UV-I 0 W/m 16,1 km/h (3 Bft)
16.10.2010 19:50 6,1 C 89 % 1015,6 hPa 0,0 mm 4,8 km/h (1 Bft) N-NO 22 0 min 0 UV-I 0 W/m 17,7 km/h (3 Bft)
16.10.2010 20:00 6,2 C 88 % 1015,7 hPa 0,0 mm 4,8 km/h (1 Bft) N-NO 22 0 min 0 UV-I 0 W/m 11,3 km/h (2 Bft)
16.10.2010 20:10 6,2 C 88 % 1015,8 hPa 0,0 mm 6,4 km/h (2 Bft) N-NO 22 0 min 0 UV-I 0 W/m 25,7 km/h (4 Bft)
16.10.2010 20:20 6,1 C 87 % 1015,9 hPa 0,0 mm 6,4 km/h (2 Bft) NO 45 0 min 0 UV-I 0 W/m 25,7 km/h (4 Bft)
16.10.2010 20:30 6,2 C 87 % 1016,0 hPa 0,0 mm 4,8 km/h (1 Bft) O-NO 67 0 min 0 UV-I 0 W/m 11,3 km/h (2 Bft)
16.10.2010 20:40 6,2 C 87 % 1016,1 hPa 0,0 mm 3,2 km/h (1 Bft) NO 45 0 min 0 UV-I 0 W/m 19,3 km/h (3 Bft)
16.10.2010 20:50 6,2 C 87 % 1016,3 hPa 0,0 mm 3,2 km/h (1 Bft) NO 45 0 min 0 UV-I 0 W/m 11,3 km/h (2 Bft)
16.10.2010 21:00 6,1 C 87 % 1016,6 hPa 0,0 mm 4,8 km/h (1 Bft) N-NO 22 0 min 0 UV-I 0 W/m 9,7 km/h (2 Bft)
16.10.2010 21:10 6,1 C 87 % 1016,6 hPa 0,0 mm 3,2 km/h (1 Bft) O-NO 67 0 min 0 UV-I 0 W/m 16,1 km/h (3 Bft)
16.10.2010 21:20 6,2 C 87 % 1016,8 hPa 0,0 mm 3,2 km/h (1 Bft) NO 45 0 min 0 UV-I 0 W/m 17,7 km/h (3 Bft)
16.10.2010 21:30 6,1 C 87 % 1016,8 hPa 0,0 mm 4,8 km/h (1 Bft) N-NO 22 0 min 0 UV-I 0 W/m 19,3 km/h (3 Bft)
16.10.2010 21:40 6,1 C 87 % 1016,7 hPa 0,0 mm 4,8 km/h (1 Bft) N-NO 22 0 min 0 UV-I 0 W/m 17,7 km/h (3 Bft)
16.10.2010 21:50 6,2 C 86 % 1016,9 hPa 0,0 mm 3,2 km/h (1 Bft) NO 45 0 min 0 UV-I 0 W/m 14,5 km/h (3 Bft)
16.10.2010 22:00 6,2 C 87 % 1017,0 hPa 0,0 mm 1,6 km/h (1 Bft) O-NO 67 0 min 0 UV-I 0 W/m 6,4 km/h (2 Bft)
16.10.2010 22:10 6,2 C 87 % 1017,3 hPa 0,0 mm 3,2 km/h (1 Bft) NO 45 0 min 0 UV-I 0 W/m 16,1 km/h (3 Bft)
16.10.2010 22:20 6,2 C 87 % 1017,2 hPa 0,0 mm 3,2 km/h (1 Bft) NO 45 0 min 0 UV-I 0 W/m 14,5 km/h (3 Bft)
16.10.2010 22:30 6,2 C 87 % 1017,1 hPa 0,0 mm 3,2 km/h (1 Bft) O-NO 67 0 min 0 UV-I 0 W/m 9,7 km/h (2 Bft)
16.10.2010 22:40 6,2 C 87 % 1017,2 hPa 0,0 mm 1,6 km/h (1 Bft) O-NO 67 0 min 0 UV-I 0 W/m 9,7 km/h (2 Bft)
16.10.2010 22:50 6,2 C 87 % 1017,5 hPa 0,0 mm 1,6 km/h (1 Bft) O-NO 67 0 min 0 UV-I 0 W/m 6,4 km/h (2 Bft)
16.10.2010 23:00 6,2 C 87 % 1017,5 hPa 0,0 mm 1,6 km/h (1 Bft) O-NO 67 0 min 0 UV-I 0 W/m 8,0 km/h (2 Bft)
16.10.2010 23:10 6,2 C 87 % 1017,6 hPa 0,0 mm 4,8 km/h (1 Bft) NO 45 0 min 0 UV-I 0 W/m 16,1 km/h (3 Bft)
16.10.2010 23:20 6,1 C 87 % 1017,5 hPa 0,0 mm 6,4 km/h (2 Bft) O 90 0 min 0 UV-I 0 W/m 19,3 km/h (3 Bft)
16.10.2010 23:30 6,1 C 87 % 1017,7 hPa 0,0 mm 4,8 km/h (1 Bft) O-NO 67 0 min 0 UV-I 0 W/m 14,5 km/h (3 Bft)
16.10.2010 23:40 6,1 C 87 % 1017,8 hPa 0,0 mm 4,8 km/h (1 Bft) O 90 0 min 0 UV-I 0 W/m 11,3 km/h (2 Bft)
16.10.2010 23:50 6,1 C 87 % 1017,9 hPa 0,0 mm 3,2 km/h (1 Bft) O-NO 67 0 min 0 UV-I 0 W/m 12,9 km/h (3 Bft)
_ Min-Zeit 14:50 21:50 04:50 - 00:10 - - - - - 03:40
Minimum _ 5,9 C 86 % 1006,4 hPa - 0,0 km/h (0 Bft) - - - - - 0,0 km/h (0 Bft)
_ Max-Zeit 11:10 01:40 23:50 00:10 17:20 - - 00:00 12:10 12:20 12:50
Maximum _ 8,9 C 94 % 1017,9 hPa 0,3 mm 7,9 km/h
O-NO (2 Bft)
- - 0 min 1 UV-I 82 W/m 25,7 km/h
N-NO (4 Bft)
Durchschnitt _ 7,4 C 92 % 1010,8 hPa #6,4 mm 2,6 km/h (1 Bft) N-NO - #0 min. 0 UV-I 40 W/m 10,6 km/h (2 Bft)